sensor_id;sensor_type;location;lat;lon;timestamp;P1;durP1;ratioP1;P2;durP2;ratioP2
55220;SDS011;41089;51.448;6.604;2024-01-15T00:03:58;43.10;;;22.13;;
55220;SDS011;41089;51.448;6.604;2024-01-15T00:09:59;36.67;;;18.55;;
55220;SDS011;41089;51.448;6.604;2024-01-15T00:15:59;33.33;;;18.77;;
55220;SDS011;41089;51.448;6.604;2024-01-15T00:22:01;37.80;;;18.30;;
55220;SDS011;41089;51.448;6.604;2024-01-15T00:28:01;29.60;;;17.20;;
55220;SDS011;41089;51.448;6.604;2024-01-15T00:34:02;31.55;;;17.10;;
55220;SDS011;41089;51.448;6.604;2024-01-15T00:40:02;28.80;;;16.77;;
55220;SDS011;41089;51.448;6.604;2024-01-15T00:46:05;33.28;;;18.25;;
55220;SDS011;41089;51.448;6.604;2024-01-15T00:52:05;38.92;;;18.33;;
55220;SDS011;41089;51.448;6.604;2024-01-15T00:58:06;37.20;;;20.58;;
55220;SDS011;41089;51.448;6.604;2024-01-15T01:04:06;34.60;;;20.10;;
55220;SDS011;41089;51.448;6.604;2024-01-15T01:10:07;36.20;;;19.80;;
55220;SDS011;41089;51.448;6.604;2024-01-15T01:16:07;37.38;;;19.08;;
55220;SDS011;41089;51.448;6.604;2024-01-15T01:22:08;33.25;;;18.45;;
55220;SDS011;41089;51.448;6.604;2024-01-15T01:28:08;31.10;;;19.17;;
55220;SDS011;41089;51.448;6.604;2024-01-15T01:34:09;31.20;;;18.38;;
55220;SDS011;41089;51.448;6.604;2024-01-15T01:40:10;33.25;;;18.67;;
55220;SDS011;41089;51.448;6.604;2024-01-15T01:46:10;33.00;;;17.38;;
55220;SDS011;41089;51.448;6.604;2024-01-15T01:52:11;31.30;;;16.98;;
55220;SDS011;41089;51.448;6.604;2024-01-15T01:58:12;32.03;;;16.30;;
55220;SDS011;41089;51.448;6.604;2024-01-15T02:04:12;28.88;;;16.02;;
55220;SDS011;41089;51.448;6.604;2024-01-15T02:17:10;23.02;;;12.43;;
55220;SDS011;41089;51.448;6.604;2024-01-15T02:23:14;28.73;;;13.40;;
55220;SDS011;41089;51.448;6.604;2024-01-15T02:29:14;23.95;;;12.32;;
55220;SDS011;41089;51.448;6.604;2024-01-15T02:35:15;21.17;;;11.98;;
55220;SDS011;41089;51.448;6.604;2024-01-15T02:41:15;19.67;;;10.60;;
55220;SDS011;41089;51.448;6.604;2024-01-15T02:47:16;21.05;;;9.75;;
55220;SDS011;41089;51.448;6.604;2024-01-15T02:53:16;15.30;;;8.87;;
55220;SDS011;41089;51.448;6.604;2024-01-15T02:59:17;15.30;;;9.95;;
55220;SDS011;41089;51.448;6.604;2024-01-15T03:05:17;17.33;;;7.40;;
55220;SDS011;41089;51.448;6.604;2024-01-15T03:11:19;16.27;;;7.65;;
55220;SDS011;41089;51.448;6.604;2024-01-15T03:17:19;17.17;;;7.93;;
55220;SDS011;41089;51.448;6.604;2024-01-15T03:23:19;13.05;;;7.75;;
55220;SDS011;41089;51.448;6.604;2024-01-15T03:29:20;16.58;;;7.85;;
55220;SDS011;41089;51.448;6.604;2024-01-15T03:35:22;13.43;;;8.80;;
55220;SDS011;41089;51.448;6.604;2024-01-15T03:41:22;12.87;;;8.87;;
55220;SDS011;41089;51.448;6.604;2024-01-15T03:47:23;19.42;;;11.27;;
55220;SDS011;41089;51.448;6.604;2024-01-15T03:53:26;21.73;;;10.65;;
55220;SDS011;41089;51.448;6.604;2024-01-15T03:59:26;15.77;;;11.45;;
55220;SDS011;41089;51.448;6.604;2024-01-15T04:05:26;15.93;;;10.50;;
55220;SDS011;41089;51.448;6.604;2024-01-15T04:11:27;17.33;;;11.20;;
55220;SDS011;41089;51.448;6.604;2024-01-15T04:17:27;16.27;;;10.90;;
55220;SDS011;41089;51.448;6.604;2024-01-15T04:23:28;15.15;;;10.02;;
55220;SDS011;41089;51.448;6.604;2024-01-15T04:29:28;14.15;;;8.88;;
55220;SDS011;41089;51.448;6.604;2024-01-15T04:35:29;12.40;;;7.93;;
55220;SDS011;41089;51.448;6.604;2024-01-15T04:41:32;15.63;;;9.35;;
55220;SDS011;41089;51.448;6.604;2024-01-15T04:47:33;10.57;;;7.35;;
55220;SDS011;41089;51.448;6.604;2024-01-15T04:53:34;16.60;;;8.70;;
55220;SDS011;41089;51.448;6.604;2024-01-15T04:59:36;16.58;;;8.32;;
55220;SDS011;41089;51.448;6.604;2024-01-15T05:05:37;16.08;;;8.65;;
55220;SDS011;41089;51.448;6.604;2024-01-15T05:11:39;15.13;;;9.25;;
55220;SDS011;41089;51.448;6.604;2024-01-15T05:17:39;14.18;;;9.05;;
55220;SDS011;41089;51.448;6.604;2024-01-15T05:23:40;14.88;;;7.82;;
55220;SDS011;41089;51.448;6.604;2024-01-15T05:29:41;15.93;;;8.43;;
55220;SDS011;41089;51.448;6.604;2024-01-15T05:35:42;16.58;;;6.75;;
55220;SDS011;41089;51.448;6.604;2024-01-15T05:41:43;11.90;;;7.55;;
55220;SDS011;41089;51.448;6.604;2024-01-15T05:47:43;13.57;;;6.32;;
55220;SDS011;41089;51.448;6.604;2024-01-15T05:53:44;15.75;;;6.40;;
55220;SDS011;41089;51.448;6.604;2024-01-15T05:59:44;16.80;;;5.83;;
55220;SDS011;41089;51.448;6.604;2024-01-15T06:05:45;12.23;;;5.32;;
55220;SDS011;41089;51.448;6.604;2024-01-15T06:11:46;8.68;;;4.07;;
55220;SDS011;41089;51.448;6.604;2024-01-15T06:17:46;8.10;;;3.97;;
55220;SDS011;41089;51.448;6.604;2024-01-15T06:23:46;9.07;;;3.40;;
55220;SDS011;41089;51.448;6.604;2024-01-15T06:29:48;7.22;;;3.05;;
55220;SDS011;41089;51.448;6.604;2024-01-15T06:35:48;7.57;;;3.65;;
55220;SDS011;41089;51.448;6.604;2024-01-15T06:41:49;6.13;;;2.65;;
55220;SDS011;41089;51.448;6.604;2024-01-15T06:47:50;5.20;;;2.70;;
55220;SDS011;41089;51.448;6.604;2024-01-15T06:53:50;5.03;;;2.70;;
55220;SDS011;41089;51.448;6.604;2024-01-15T06:59:50;4.05;;;2.58;;
55220;SDS011;41089;51.448;6.604;2024-01-15T07:05:51;7.75;;;2.75;;
55220;SDS011;41089;51.448;6.604;2024-01-15T07:11:51;5.68;;;2.95;;
55220;SDS011;41089;51.448;6.604;2024-01-15T07:17:52;8.13;;;3.53;;
55220;SDS011;41089;51.448;6.604;2024-01-15T07:23:52;7.60;;;3.60;;
55220;SDS011;41089;51.448;6.604;2024-01-15T07:29:53;7.93;;;5.30;;
55220;SDS011;41089;51.448;6.604;2024-01-15T07:35:53;13.60;;;8.55;;
55220;SDS011;41089;51.448;6.604;2024-01-15T07:41:54;16.40;;;11.37;;
55220;SDS011;41089;51.448;6.604;2024-01-15T07:47:54;17.58;;;12.02;;
55220;SDS011;41089;51.448;6.604;2024-01-15T07:53:55;19.57;;;11.70;;
55220;SDS011;41089;51.448;6.604;2024-01-15T07:59:56;16.38;;;11.25;;
55220;SDS011;41089;51.448;6.604;2024-01-15T08:05:57;17.23;;;10.98;;
55220;SDS011;41089;51.448;6.604;2024-01-15T08:11:59;16.13;;;11.77;;
55220;SDS011;41089;51.448;6.604;2024-01-15T08:18:00;21.50;;;12.13;;
55220;SDS011;41089;51.448;6.604;2024-01-15T08:24:02;13.55;;;11.57;;
55220;SDS011;41089;51.448;6.604;2024-01-15T08:30:03;10.15;;;9.10;;
55220;SDS011;41089;51.448;6.604;2024-01-15T08:36:04;14.77;;;10.48;;
55220;SDS011;41089;51.448;6.604;2024-01-15T08:42:05;9.60;;;8.02;;
55220;SDS011;41089;51.448;6.604;2024-01-15T08:48:07;14.80;;;10.02;;
55220;SDS011;41089;51.448;6.604;2024-01-15T08:54:08;7.95;;;6.68;;
55220;SDS011;41089;51.448;6.604;2024-01-15T09:00:09;9.63;;;7.03;;
55220;SDS011;41089;51.448;6.604;2024-01-15T09:06:11;5.97;;;5.38;;
55220;SDS011;41089;51.448;6.604;2024-01-15T09:12:12;9.75;;;6.20;;
55220;SDS011;41089;51.448;6.604;2024-01-15T09:18:15;5.15;;;4.43;;
55220;SDS011;41089;51.448;6.604;2024-01-15T09:24:16;7.85;;;4.50;;
55220;SDS011;41089;51.448;6.604;2024-01-15T09:30:16;7.10;;;3.78;;
55220;SDS011;41089;51.448;6.604;2024-01-15T09:36:18;5.38;;;3.40;;
55220;SDS011;41089;51.448;6.604;2024-01-15T09:42:18;3.90;;;3.60;;
55220;SDS011;41089;51.448;6.604;2024-01-15T09:48:19;4.90;;;3.75;;
55220;SDS011;41089;51.448;6.604;2024-01-15T09:54:19;4.60;;;3.83;;
55220;SDS011;41089;51.448;6.604;2024-01-15T10:00:21;8.98;;;4.40;;
55220;SDS011;41089;51.448;6.604;2024-01-15T10:06:23;5.82;;;4.43;;
55220;SDS011;41089;51.448;6.604;2024-01-15T10:12:24;3.65;;;3.20;;
55220;SDS011;41089;51.448;6.604;2024-01-15T10:18:28;5.32;;;3.42;;
55220;SDS011;41089;51.448;6.604;2024-01-15T10:24:28;5.53;;;3.80;;
55220;SDS011;41089;51.448;6.604;2024-01-15T10:30:29;5.10;;;4.03;;
55220;SDS011;41089;51.448;6.604;2024-01-15T10:36:31;4.10;;;3.33;;
55220;SDS011;41089;51.448;6.604;2024-01-15T10:42:32;4.78;;;3.80;;
55220;SDS011;41089;51.448;6.604;2024-01-15T10:48:32;8.00;;;4.07;;
55220;SDS011;41089;51.448;6.604;2024-01-15T10:54:34;7.78;;;4.32;;
55220;SDS011;41089;51.448;6.604;2024-01-15T11:00:36;5.80;;;4.47;;
55220;SDS011;41089;51.448;6.604;2024-01-15T11:06:44;4.63;;;4.15;;
55220;SDS011;41089;51.448;6.604;2024-01-15T11:12:47;11.80;;;5.32;;
55220;SDS011;41089;51.448;6.604;2024-01-15T11:24:57;14.87;;;6.20;;
55220;SDS011;41089;51.448;6.604;2024-01-15T11:31:02;16.38;;;4.30;;
55220;SDS011;41089;51.448;6.604;2024-01-15T11:37:03;6.85;;;2.90;;
55220;SDS011;41089;51.448;6.604;2024-01-15T11:43:04;3.90;;;2.78;;
55220;SDS011;41089;51.448;6.604;2024-01-15T11:49:06;10.05;;;2.83;;
55220;SDS011;41089;51.448;6.604;2024-01-15T11:55:19;6.07;;;1.92;;
55220;SDS011;41089;51.448;6.604;2024-01-15T12:01:21;5.85;;;2.22;;
55220;SDS011;41089;51.448;6.604;2024-01-15T12:07:21;7.05;;;1.90;;
55220;SDS011;41089;51.448;6.604;2024-01-15T12:13:21;8.20;;;1.95;;
55220;SDS011;41089;51.448;6.604;2024-01-15T12:19:22;6.27;;;1.77;;
55220;SDS011;41089;51.448;6.604;2024-01-15T12:25:23;4.13;;;2.42;;
55220;SDS011;41089;51.448;6.604;2024-01-15T12:31:24;7.00;;;2.17;;
55220;SDS011;41089;51.448;6.604;2024-01-15T12:37:24;6.00;;;2.38;;
55220;SDS011;41089;51.448;6.604;2024-01-15T12:43:26;4.40;;;2.75;;
55220;SDS011;41089;51.448;6.604;2024-01-15T12:49:27;5.70;;;2.83;;
55220;SDS011;41089;51.448;6.604;2024-01-15T12:55:28;3.65;;;2.60;;
55220;SDS011;41089;51.448;6.604;2024-01-15T13:01:30;12.48;;;2.90;;
55220;SDS011;41089;51.448;6.604;2024-01-15T13:07:34;8.38;;;4.43;;
55220;SDS011;41089;51.448;6.604;2024-01-15T13:13:34;8.02;;;3.25;;
55220;SDS011;41089;51.448;6.604;2024-01-15T13:19:34;7.27;;;3.63;;
55220;SDS011;41089;51.448;6.604;2024-01-15T13:25:35;8.18;;;3.22;;
55220;SDS011;41089;51.448;6.604;2024-01-15T13:31:37;3.00;;;2.60;;
55220;SDS011;41089;51.448;6.604;2024-01-15T13:37:38;1.63;;;1.50;;
55220;SDS011;41089;51.448;6.604;2024-01-15T13:43:41;3.70;;;2.00;;
55220;SDS011;41089;51.448;6.604;2024-01-15T13:49:42;1.58;;;1.35;;
55220;SDS011;41089;51.448;6.604;2024-01-15T13:55:42;1.97;;;1.33;;
55220;SDS011;41089;51.448;6.604;2024-01-15T14:01:44;3.30;;;1.75;;
55220;SDS011;41089;51.448;6.604;2024-01-15T14:07:44;1.85;;;1.67;;
55220;SDS011;41089;51.448;6.604;2024-01-15T14:13:44;1.85;;;1.05;;
55220;SDS011;41089;51.448;6.604;2024-01-15T14:19:46;2.35;;;1.67;;
55220;SDS011;41089;51.448;6.604;2024-01-15T14:25:47;2.13;;;1.40;;
55220;SDS011;41089;51.448;6.604;2024-01-15T14:31:47;1.75;;;1.38;;
55220;SDS011;41089;51.448;6.604;2024-01-15T14:37:47;4.65;;;1.52;;
55220;SDS011;41089;51.448;6.604;2024-01-15T14:43:48;2.83;;;1.60;;
55220;SDS011;41089;51.448;6.604;2024-01-15T14:49:49;3.45;;;1.70;;
55220;SDS011;41089;51.448;6.604;2024-01-15T14:55:49;2.72;;;1.85;;
55220;SDS011;41089;51.448;6.604;2024-01-15T15:01:50;2.22;;;1.95;;
55220;SDS011;41089;51.448;6.604;2024-01-15T15:07:51;2.35;;;1.75;;
55220;SDS011;41089;51.448;6.604;2024-01-15T15:13:51;5.00;;;2.50;;
55220;SDS011;41089;51.448;6.604;2024-01-15T15:19:52;3.08;;;2.20;;
55220;SDS011;41089;51.448;6.604;2024-01-15T15:25:55;2.65;;;2.45;;
55220;SDS011;41089;51.448;6.604;2024-01-15T15:31:56;2.33;;;2.10;;
55220;SDS011;41089;51.448;6.604;2024-01-15T15:37:56;2.47;;;2.20;;
55220;SDS011;41089;51.448;6.604;2024-01-15T15:43:57;3.03;;;2.30;;
55220;SDS011;41089;51.448;6.604;2024-01-15T15:49:57;3.58;;;2.40;;
55220;SDS011;41089;51.448;6.604;2024-01-15T15:55:58;2.42;;;2.22;;
55220;SDS011;41089;51.448;6.604;2024-01-15T16:01:58;6.00;;;2.50;;
55220;SDS011;41089;51.448;6.604;2024-01-15T16:07:59;9.65;;;2.80;;
55220;SDS011;41089;51.448;6.604;2024-01-15T16:13:59;5.45;;;2.58;;
55220;SDS011;41089;51.448;6.604;2024-01-15T16:20:02;5.78;;;2.60;;
55220;SDS011;41089;51.448;6.604;2024-01-15T16:26:03;4.93;;;2.90;;
55220;SDS011;41089;51.448;6.604;2024-01-15T16:32:03;6.53;;;3.42;;
55220;SDS011;41089;51.448;6.604;2024-01-15T16:38:04;8.07;;;4.07;;
55220;SDS011;41089;51.448;6.604;2024-01-15T16:44:05;5.68;;;3.72;;
55220;SDS011;41089;51.448;6.604;2024-01-15T16:50:05;11.25;;;4.78;;
55220;SDS011;41089;51.448;6.604;2024-01-15T16:56:06;8.13;;;5.32;;
55220;SDS011;41089;51.448;6.604;2024-01-15T17:02:06;10.83;;;4.27;;
55220;SDS011;41089;51.448;6.604;2024-01-15T17:08:07;11.10;;;5.30;;
55220;SDS011;41089;51.448;6.604;2024-01-15T17:14:08;9.65;;;4.53;;
55220;SDS011;41089;51.448;6.604;2024-01-15T17:20:08;9.43;;;4.00;;
55220;SDS011;41089;51.448;6.604;2024-01-15T17:26:09;9.93;;;3.95;;
55220;SDS011;41089;51.448;6.604;2024-01-15T17:32:09;12.80;;;3.67;;
55220;SDS011;41089;51.448;6.604;2024-01-15T17:38:10;9.23;;;3.20;;
55220;SDS011;41089;51.448;6.604;2024-01-15T17:44:11;9.77;;;4.45;;
55220;SDS011;41089;51.448;6.604;2024-01-15T17:50:13;12.27;;;5.07;;
55220;SDS011;41089;51.448;6.604;2024-01-15T17:56:14;7.80;;;3.20;;
55220;SDS011;41089;51.448;6.604;2024-01-15T18:02:15;9.77;;;3.45;;
55220;SDS011;41089;51.448;6.604;2024-01-15T18:08:15;6.90;;;3.87;;
55220;SDS011;41089;51.448;6.604;2024-01-15T18:14:15;8.77;;;3.78;;
55220;SDS011;41089;51.448;6.604;2024-01-15T18:20:16;10.87;;;3.57;;
55220;SDS011;41089;51.448;6.604;2024-01-15T18:26:17;10.85;;;4.53;;
55220;SDS011;41089;51.448;6.604;2024-01-15T18:32:17;8.67;;;4.03;;
55220;SDS011;41089;51.448;6.604;2024-01-15T18:38:18;12.10;;;4.82;;
55220;SDS011;41089;51.448;6.604;2024-01-15T18:44:18;9.23;;;4.35;;
55220;SDS011;41089;51.448;6.604;2024-01-15T18:50:19;6.53;;;3.05;;
55220;SDS011;41089;51.448;6.604;2024-01-15T18:56:19;6.30;;;2.33;;
55220;SDS011;41089;51.448;6.604;2024-01-15T19:02:19;8.80;;;2.67;;
55220;SDS011;41089;51.448;6.604;2024-01-15T19:08:20;7.57;;;2.90;;
55220;SDS011;41089;51.448;6.604;2024-01-15T19:14:20;13.63;;;5.53;;
55220;SDS011;41089;51.448;6.604;2024-01-15T19:20:20;7.35;;;3.00;;
55220;SDS011;41089;51.448;6.604;2024-01-15T19:26:21;7.18;;;3.17;;
55220;SDS011;41089;51.448;6.604;2024-01-15T19:32:21;10.07;;;3.40;;
55220;SDS011;41089;51.448;6.604;2024-01-15T19:38:22;7.60;;;2.88;;
55220;SDS011;41089;51.448;6.604;2024-01-15T19:44:23;10.73;;;3.47;;
55220;SDS011;41089;51.448;6.604;2024-01-15T19:50:23;11.57;;;4.03;;
55220;SDS011;41089;51.448;6.604;2024-01-15T19:56:24;9.48;;;4.35;;
55220;SDS011;41089;51.448;6.604;2024-01-15T20:02:24;10.95;;;3.55;;
55220;SDS011;41089;51.448;6.604;2024-01-15T20:08:25;11.60;;;4.22;;
55220;SDS011;41089;51.448;6.604;2024-01-15T20:14:26;12.85;;;3.83;;
55220;SDS011;41089;51.448;6.604;2024-01-15T20:20:28;10.13;;;3.50;;
55220;SDS011;41089;51.448;6.604;2024-01-15T20:26:29;9.25;;;3.60;;
55220;SDS011;41089;51.448;6.604;2024-01-15T20:32:30;14.40;;;5.50;;
55220;SDS011;41089;51.448;6.604;2024-01-15T20:38:31;11.13;;;4.00;;
55220;SDS011;41089;51.448;6.604;2024-01-15T20:44:33;7.53;;;3.40;;
55220;SDS011;41089;51.448;6.604;2024-01-15T20:50:33;10.68;;;3.83;;
55220;SDS011;41089;51.448;6.604;2024-01-15T20:56:33;12.80;;;4.50;;
55220;SDS011;41089;51.448;6.604;2024-01-15T21:02:34;9.63;;;4.80;;
55220;SDS011;41089;51.448;6.604;2024-01-15T21:08:35;15.90;;;5.28;;
55220;SDS011;41089;51.448;6.604;2024-01-15T21:14:36;16.43;;;5.93;;
55220;SDS011;41089;51.448;6.604;2024-01-15T21:20:36;16.80;;;4.75;;
55220;SDS011;41089;51.448;6.604;2024-01-15T21:26:38;11.82;;;4.20;;
55220;SDS011;41089;51.448;6.604;2024-01-15T21:32:38;8.43;;;3.38;;
55220;SDS011;41089;51.448;6.604;2024-01-15T21:38:41;8.68;;;4.40;;
55220;SDS011;41089;51.448;6.604;2024-01-15T21:44:42;13.82;;;5.63;;
55220;SDS011;41089;51.448;6.604;2024-01-15T21:50:43;9.88;;;5.88;;
55220;SDS011;41089;51.448;6.604;2024-01-15T21:56:43;7.60;;;5.45;;
55220;SDS011;41089;51.448;6.604;2024-01-15T22:02:44;9.48;;;6.18;;
55220;SDS011;41089;51.448;6.604;2024-01-15T22:08:45;10.10;;;5.32;;
55220;SDS011;41089;51.448;6.604;2024-01-15T22:14:45;13.45;;;5.43;;
55220;SDS011;41089;51.448;6.604;2024-01-15T22:20:46;10.70;;;5.50;;
55220;SDS011;41089;51.448;6.604;2024-01-15T22:26:46;11.40;;;4.68;;
55220;SDS011;41089;51.448;6.604;2024-01-15T22:32:46;7.30;;;4.53;;
55220;SDS011;41089;51.448;6.604;2024-01-15T22:38:47;13.68;;;6.22;;
55220;SDS011;41089;51.448;6.604;2024-01-15T22:44:48;11.55;;;5.78;;
55220;SDS011;41089;51.448;6.604;2024-01-15T22:50:49;10.65;;;5.90;;
55220;SDS011;41089;51.448;6.604;2024-01-15T22:56:49;8.10;;;5.25;;
55220;SDS011;41089;51.448;6.604;2024-01-15T23:02:49;7.72;;;5.07;;
55220;SDS011;41089;51.448;6.604;2024-01-15T23:08:51;8.23;;;4.63;;
55220;SDS011;41089;51.448;6.604;2024-01-15T23:14:52;7.13;;;3.97;;
55220;SDS011;41089;51.448;6.604;2024-01-15T23:20:52;10.10;;;4.22;;
55220;SDS011;41089;51.448;6.604;2024-01-15T23:26:53;8.77;;;4.15;;
55220;SDS011;41089;51.448;6.604;2024-01-15T23:32:53;13.73;;;4.40;;
55220;SDS011;41089;51.448;6.604;2024-01-15T23:38:53;6.57;;;3.70;;
55220;SDS011;41089;51.448;6.604;2024-01-15T23:44:54;10.18;;;4.82;;
55220;SDS011;41089;51.448;6.604;2024-01-15T23:50:55;6.85;;;3.83;;
55220;SDS011;41089;51.448;6.604;2024-01-15T23:56:55;10.03;;;5.63;;
